sensor_id;sensor_type;location;lat;lon;timestamp;pressure;altitude;pressure_sealevel;temperature;humidity
61814;BME280;57055;-35.296;149.168;2022-08-27T00:02:04;96417.73;;;8.06;57.48
61814;BME280;57055;-35.296;149.168;2022-08-27T00:04:34;96418.19;;;8.25;57.59
61814;BME280;57055;-35.296;149.168;2022-08-27T00:07:04;96413.18;;;8.44;57.32
61814;BME280;57055;-35.296;149.168;2022-08-27T00:09:33;96415.93;;;8.45;56.68
61814;BME280;57055;-35.296;149.168;2022-08-27T00:12:04;96413.07;;;8.23;57.07
61814;BME280;57055;-35.296;149.168;2022-08-27T00:14:35;96414.51;;;8.10;57.93
61814;BME280;57055;-35.296;149.168;2022-08-27T00:17:05;96415.29;;;8.31;58.14
61814;BME280;57055;-35.296;149.168;2022-08-27T00:19:34;96411.18;;;8.08;58.15
61814;BME280;57055;-35.296;149.168;2022-08-27T00:22:05;96407.38;;;8.64;57.87
61814;BME280;57055;-35.296;149.168;2022-08-27T00:24:35;96407.17;;;8.31;58.00
61814;BME280;57055;-35.296;149.168;2022-08-27T00:27:05;96400.60;;;8.65;57.42
61814;BME280;57055;-35.296;149.168;2022-08-27T00:29:34;96395.68;;;8.65;57.60
61814;BME280;57055;-35.296;149.168;2022-08-27T00:32:03;96395.66;;;8.54;57.09
61814;BME280;57055;-35.296;149.168;2022-08-27T00:34:32;96396.37;;;9.13;56.82
61814;BME280;57055;-35.296;149.168;2022-08-27T00:37:02;96392.78;;;9.18;56.30
61814;BME280;57055;-35.296;149.168;2022-08-27T00:39:31;96391.41;;;9.18;55.94
61814;BME280;57055;-35.296;149.168;2022-08-27T00:42:01;96385.23;;;9.08;55.94
61814;BME280;57055;-35.296;149.168;2022-08-27T00:44:31;96383.15;;;9.33;55.63
61814;BME280;57055;-35.296;149.168;2022-08-27T00:47:03;96379.10;;;9.32;55.15
61814;BME280;57055;-35.296;149.168;2022-08-27T00:49:39;96377.07;;;9.65;55.30
61814;BME280;57055;-35.296;149.168;2022-08-27T00:52:15;96373.77;;;9.42;55.56
61814;BME280;57055;-35.296;149.168;2022-08-27T00:54:47;96375.13;;;9.81;55.92
61814;BME280;57055;-35.296;149.168;2022-08-27T00:57:17;96375.42;;;9.19;55.93
61814;BME280;57055;-35.296;149.168;2022-08-27T00:59:46;96375.92;;;9.32;56.24
61814;BME280;57055;-35.296;149.168;2022-08-27T01:02:16;96372.22;;;9.03;56.74
61814;BME280;57055;-35.296;149.168;2022-08-27T01:04:49;96368.84;;;9.11;56.83
61814;BME280;57055;-35.296;149.168;2022-08-27T01:07:20;96365.08;;;9.32;56.44
61814;BME280;57055;-35.296;149.168;2022-08-27T01:09:52;96364.76;;;9.21;56.42
61814;BME280;57055;-35.296;149.168;2022-08-27T01:12:22;96357.84;;;9.60;55.66
61814;BME280;57055;-35.296;149.168;2022-08-27T01:14:52;96356.17;;;9.16;55.75
61814;BME280;57055;-35.296;149.168;2022-08-27T01:17:21;96357.79;;;9.29;55.46
61814;BME280;57055;-35.296;149.168;2022-08-27T01:19:53;96352.96;;;9.36;55.12
61814;BME280;57055;-35.296;149.168;2022-08-27T01:22:32;96347.57;;;9.70;55.11
61814;BME280;57055;-35.296;149.168;2022-08-27T01:25:07;96347.70;;;10.01;54.36
61814;BME280;57055;-35.296;149.168;2022-08-27T01:27:37;96343.00;;;10.03;54.90
61814;BME280;57055;-35.296;149.168;2022-08-27T01:30:10;96342.80;;;10.06;54.48
61814;BME280;57055;-35.296;149.168;2022-08-27T01:32:40;96338.73;;;9.99;54.53
61814;BME280;57055;-35.296;149.168;2022-08-27T01:35:10;96337.39;;;9.88;54.31
61814;BME280;57055;-35.296;149.168;2022-08-27T01:37:41;96334.93;;;10.31;53.52
61814;BME280;57055;-35.296;149.168;2022-08-27T01:40:12;96332.74;;;10.78;52.90
61814;BME280;57055;-35.296;149.168;2022-08-27T01:42:43;96324.99;;;10.44;53.40
61814;BME280;57055;-35.296;149.168;2022-08-27T01:45:16;96322.21;;;10.73;52.36
61814;BME280;57055;-35.296;149.168;2022-08-27T01:47:45;96313.33;;;10.59;52.38
61814;BME280;57055;-35.296;149.168;2022-08-27T01:50:18;96311.78;;;10.58;52.24
61814;BME280;57055;-35.296;149.168;2022-08-27T01:52:48;96310.43;;;10.25;52.50
61814;BME280;57055;-35.296;149.168;2022-08-27T01:55:21;96304.87;;;10.80;52.61
61814;BME280;57055;-35.296;149.168;2022-08-27T01:57:52;96300.03;;;10.62;52.59
61814;BME280;57055;-35.296;149.168;2022-08-27T02:00:24;96295.14;;;10.36;53.18
61814;BME280;57055;-35.296;149.168;2022-08-27T02:02:55;96289.21;;;10.37;53.78
61814;BME280;57055;-35.296;149.168;2022-08-27T02:05:24;96286.80;;;10.22;54.09
61814;BME280;57055;-35.296;149.168;2022-08-27T02:07:54;96277.58;;;10.31;53.36
61814;BME280;57055;-35.296;149.168;2022-08-27T02:10:26;96274.45;;;10.57;53.27
61814;BME280;57055;-35.296;149.168;2022-08-27T02:12:55;96268.53;;;10.30;52.64
61814;BME280;57055;-35.296;149.168;2022-08-27T02:15:26;96261.16;;;10.97;52.53
61814;BME280;57055;-35.296;149.168;2022-08-27T02:17:56;96257.98;;;10.69;52.27
61814;BME280;57055;-35.296;149.168;2022-08-27T02:20:25;96246.39;;;10.44;52.83
61814;BME280;57055;-35.296;149.168;2022-08-27T02:22:55;96244.86;;;10.45;53.21
61814;BME280;57055;-35.296;149.168;2022-08-27T02:25:24;96241.28;;;10.51;53.15
61814;BME280;57055;-35.296;149.168;2022-08-27T02:27:54;96234.19;;;10.36;53.18
61814;BME280;57055;-35.296;149.168;2022-08-27T02:30:24;96228.81;;;10.25;53.56
61814;BME280;57055;-35.296;149.168;2022-08-27T02:32:53;96220.54;;;10.22;53.76
61814;BME280;57055;-35.296;149.168;2022-08-27T02:35:23;96223.19;;;10.42;53.60
61814;BME280;57055;-35.296;149.168;2022-08-27T02:37:53;96217.63;;;10.49;53.34
61814;BME280;57055;-35.296;149.168;2022-08-27T02:40:23;96211.44;;;10.33;53.26
61814;BME280;57055;-35.296;149.168;2022-08-27T02:42:53;96209.01;;;10.04;53.19
61814;BME280;57055;-35.296;149.168;2022-08-27T02:45:22;96211.40;;;10.58;53.37
61814;BME280;57055;-35.296;149.168;2022-08-27T02:47:52;96204.88;;;10.60;53.50
61814;BME280;57055;-35.296;149.168;2022-08-27T02:50:21;96201.52;;;10.52;53.42
61814;BME280;57055;-35.296;149.168;2022-08-27T02:52:51;96194.70;;;9.99;53.68
61814;BME280;57055;-35.296;149.168;2022-08-27T02:55:20;96187.22;;;10.24;53.19
61814;BME280;57055;-35.296;149.168;2022-08-27T02:57:50;96183.40;;;10.61;52.46
61814;BME280;57055;-35.296;149.168;2022-08-27T03:00:20;96178.35;;;10.33;52.58
61814;BME280;57055;-35.296;149.168;2022-08-27T03:02:50;96173.06;;;10.23;52.23
61814;BME280;57055;-35.296;149.168;2022-08-27T03:05:20;96167.23;;;10.43;52.58
61814;BME280;57055;-35.296;149.168;2022-08-27T03:07:49;96160.87;;;10.30;52.65
61814;BME280;57055;-35.296;149.168;2022-08-27T03:10:20;96155.09;;;10.30;53.05
61814;BME280;57055;-35.296;149.168;2022-08-27T03:12:49;96151.74;;;10.76;52.58
61814;BME280;57055;-35.296;149.168;2022-08-27T03:15:19;96148.57;;;10.98;51.75
61814;BME280;57055;-35.296;149.168;2022-08-27T03:17:48;96138.11;;;11.25;50.79
61814;BME280;57055;-35.296;149.168;2022-08-27T03:20:18;96136.60;;;11.23;50.28
61814;BME280;57055;-35.296;149.168;2022-08-27T03:22:47;96133.78;;;11.03;49.25
61814;BME280;57055;-35.296;149.168;2022-08-27T03:25:17;96132.27;;;11.22;48.99
61814;BME280;57055;-35.296;149.168;2022-08-27T03:27:46;96126.26;;;11.03;49.59
61814;BME280;57055;-35.296;149.168;2022-08-27T03:30:19;96122.73;;;11.60;49.28
61814;BME280;57055;-35.296;149.168;2022-08-27T03:32:49;96122.16;;;11.89;47.22
61814;BME280;57055;-35.296;149.168;2022-08-27T03:35:19;96117.57;;;11.82;48.21
61814;BME280;57055;-35.296;149.168;2022-08-27T03:37:49;96117.15;;;11.49;48.03
61814;BME280;57055;-35.296;149.168;2022-08-27T03:40:19;96113.34;;;11.43;48.02
61814;BME280;57055;-35.296;149.168;2022-08-27T03:42:48;96108.23;;;11.25;47.80
61814;BME280;57055;-35.296;149.168;2022-08-27T03:45:17;96109.96;;;11.25;48.10
61814;BME280;57055;-35.296;149.168;2022-08-27T03:47:47;96111.04;;;11.27;48.49
61814;BME280;57055;-35.296;149.168;2022-08-27T03:50:17;96105.13;;;11.52;48.03
61814;BME280;57055;-35.296;149.168;2022-08-27T03:52:46;96106.20;;;11.51;47.29
61814;BME280;57055;-35.296;149.168;2022-08-27T03:55:15;96103.95;;;11.65;47.38
61814;BME280;57055;-35.296;149.168;2022-08-27T03:57:45;96104.58;;;11.97;45.60
61814;BME280;57055;-35.296;149.168;2022-08-27T04:00:15;96104.21;;;11.73;45.66
61814;BME280;57055;-35.296;149.168;2022-08-27T04:02:44;96105.75;;;11.54;45.87
61814;BME280;57055;-35.296;149.168;2022-08-27T04:05:14;96100.99;;;11.14;46.51
61814;BME280;57055;-35.296;149.168;2022-08-27T04:07:43;96097.53;;;11.62;46.52
61814;BME280;57055;-35.296;149.168;2022-08-27T04:10:13;96094.99;;;11.72;46.55
61814;BME280;57055;-35.296;149.168;2022-08-27T04:12:43;96092.80;;;11.61;47.45
61814;BME280;57055;-35.296;149.168;2022-08-27T04:15:13;96089.78;;;11.45;47.06
61814;BME280;57055;-35.296;149.168;2022-08-27T04:17:42;96084.94;;;11.45;46.30
61814;BME280;57055;-35.296;149.168;2022-08-27T04:20:12;96084.38;;;11.43;46.23
61814;BME280;57055;-35.296;149.168;2022-08-27T04:22:41;96082.66;;;11.86;46.34
61814;BME280;57055;-35.296;149.168;2022-08-27T04:25:11;96077.88;;;12.34;46.01
61814;BME280;57055;-35.296;149.168;2022-08-27T04:27:39;96082.16;;;12.34;45.06
61814;BME280;57055;-35.296;149.168;2022-08-27T04:30:09;96085.15;;;12.46;45.14
61814;BME280;57055;-35.296;149.168;2022-08-27T04:32:38;96084.79;;;12.56;43.53
61814;BME280;57055;-35.296;149.168;2022-08-27T04:35:08;96080.33;;;12.54;43.53
61814;BME280;57055;-35.296;149.168;2022-08-27T04:37:37;96081.44;;;12.74;44.38
61814;BME280;57055;-35.296;149.168;2022-08-27T04:40:08;96077.81;;;12.40;43.84
61814;BME280;57055;-35.296;149.168;2022-08-27T04:42:37;96073.20;;;12.00;44.81
61814;BME280;57055;-35.296;149.168;2022-08-27T04:45:08;96075.08;;;12.11;45.24
61814;BME280;57055;-35.296;149.168;2022-08-27T04:47:37;96067.76;;;11.81;46.46
61814;BME280;57055;-35.296;149.168;2022-08-27T04:50:07;96063.93;;;11.68;47.07
61814;BME280;57055;-35.296;149.168;2022-08-27T04:52:36;96061.57;;;11.78;47.03
61814;BME280;57055;-35.296;149.168;2022-08-27T04:55:07;96062.58;;;11.55;47.50
61814;BME280;57055;-35.296;149.168;2022-08-27T04:57:36;96059.49;;;11.71;47.85
61814;BME280;57055;-35.296;149.168;2022-08-27T05:00:06;96058.47;;;11.62;48.26
61814;BME280;57055;-35.296;149.168;2022-08-27T05:02:36;96057.62;;;11.36;48.60
61814;BME280;57055;-35.296;149.168;2022-08-27T05:05:06;96050.83;;;11.40;48.94
61814;BME280;57055;-35.296;149.168;2022-08-27T05:07:35;96051.25;;;11.50;49.51
61814;BME280;57055;-35.296;149.168;2022-08-27T05:10:04;96048.64;;;11.45;49.67
61814;BME280;57055;-35.296;149.168;2022-08-27T05:12:33;96048.28;;;11.25;49.79
61814;BME280;57055;-35.296;149.168;2022-08-27T05:15:02;96045.19;;;11.28;49.56
61814;BME280;57055;-35.296;149.168;2022-08-27T05:17:33;96041.50;;;11.25;49.54
61814;BME280;57055;-35.296;149.168;2022-08-27T05:20:02;96038.72;;;11.43;49.56
61814;BME280;57055;-35.296;149.168;2022-08-27T05:22:31;96038.86;;;11.36;49.53
61814;BME280;57055;-35.296;149.168;2022-08-27T05:25:01;96033.60;;;11.21;49.06
61814;BME280;57055;-35.296;149.168;2022-08-27T05:27:30;96032.30;;;11.28;48.68
61814;BME280;57055;-35.296;149.168;2022-08-27T05:30:00;96029.92;;;11.23;48.23
61814;BME280;57055;-35.296;149.168;2022-08-27T05:32:29;96027.67;;;11.70;48.40
61814;BME280;57055;-35.296;149.168;2022-08-27T05:34:58;96028.39;;;11.52;48.29
61814;BME280;57055;-35.296;149.168;2022-08-27T05:37:27;96030.00;;;11.48;48.83
61814;BME280;57055;-35.296;149.168;2022-08-27T05:39:56;96030.12;;;11.74;48.10
61814;BME280;57055;-35.296;149.168;2022-08-27T05:42:27;96030.62;;;11.77;48.45
61814;BME280;57055;-35.296;149.168;2022-08-27T05:44:56;96035.34;;;11.73;48.48
61814;BME280;57055;-35.296;149.168;2022-08-27T05:47:26;96033.94;;;11.72;48.81
61814;BME280;57055;-35.296;149.168;2022-08-27T05:49:55;96035.75;;;11.47;49.16
61814;BME280;57055;-35.296;149.168;2022-08-27T05:52:24;96032.75;;;11.62;49.82
61814;BME280;57055;-35.296;149.168;2022-08-27T05:54:53;96037.86;;;11.49;49.61
61814;BME280;57055;-35.296;149.168;2022-08-27T05:57:22;96039.66;;;11.53;49.99
61814;BME280;57055;-35.296;149.168;2022-08-27T05:59:52;96038.57;;;11.77;49.74
61814;BME280;57055;-35.296;149.168;2022-08-27T06:02:21;96036.01;;;11.47;49.79
61814;BME280;57055;-35.296;149.168;2022-08-27T06:04:51;96037.86;;;11.71;50.36
61814;BME280;57055;-35.296;149.168;2022-08-27T06:07:20;96039.64;;;11.35;50.42
61814;BME280;57055;-35.296;149.168;2022-08-27T06:09:50;96040.59;;;11.27;50.37
61814;BME280;57055;-35.296;149.168;2022-08-27T06:12:18;96037.49;;;11.15;50.25
61814;BME280;57055;-35.296;149.168;2022-08-27T06:14:48;96037.40;;;11.50;50.30
61814;BME280;57055;-35.296;149.168;2022-08-27T06:17:17;96035.33;;;11.40;50.68
61814;BME280;57055;-35.296;149.168;2022-08-27T06:19:46;96038.40;;;10.99;51.37
61814;BME280;57055;-35.296;149.168;2022-08-27T06:22:15;96039.45;;;11.23;51.49
61814;BME280;57055;-35.296;149.168;2022-08-27T06:24:43;96041.02;;;10.96;51.63
61814;BME280;57055;-35.296;149.168;2022-08-27T06:27:15;96038.03;;;11.15;51.92
61814;BME280;57055;-35.296;149.168;2022-08-27T06:29:46;96041.28;;;11.10;52.41
61814;BME280;57055;-35.296;149.168;2022-08-27T06:32:15;96045.79;;;11.16;52.50
61814;BME280;57055;-35.296;149.168;2022-08-27T06:34:44;96050.96;;;10.93;52.49
61814;BME280;57055;-35.296;149.168;2022-08-27T06:37:13;96051.54;;;10.84;53.08
61814;BME280;57055;-35.296;149.168;2022-08-27T06:39:41;96052.39;;;11.05;53.43
61814;BME280;57055;-35.296;149.168;2022-08-27T06:42:11;96051.46;;;10.94;54.36
61814;BME280;57055;-35.296;149.168;2022-08-27T06:44:41;96053.33;;;10.82;55.03
61814;BME280;57055;-35.296;149.168;2022-08-27T06:47:10;96052.37;;;10.76;55.09
61814;BME280;57055;-35.296;149.168;2022-08-27T06:49:40;96052.60;;;10.72;55.64
61814;BME280;57055;-35.296;149.168;2022-08-27T06:52:11;96050.51;;;10.65;55.92
61814;BME280;57055;-35.296;149.168;2022-08-27T06:54:40;96054.19;;;10.56;55.81
61814;BME280;57055;-35.296;149.168;2022-08-27T06:57:08;96054.29;;;10.48;56.03
61814;BME280;57055;-35.296;149.168;2022-08-27T06:59:37;96051.71;;;10.39;56.46
61814;BME280;57055;-35.296;149.168;2022-08-27T07:02:06;96054.24;;;10.92;56.40
61814;BME280;57055;-35.296;149.168;2022-08-27T07:04:35;96049.90;;;10.38;56.79
61814;BME280;57055;-35.296;149.168;2022-08-27T07:07:05;96057.19;;;10.53;57.09
61814;BME280;57055;-35.296;149.168;2022-08-27T07:09:34;96057.53;;;10.23;57.17
61814;BME280;57055;-35.296;149.168;2022-08-27T07:12:03;96058.39;;;10.26;57.33
61814;BME280;57055;-35.296;149.168;2022-08-27T07:14:33;96062.81;;;10.15;57.35
61814;BME280;57055;-35.296;149.168;2022-08-27T07:17:02;96066.73;;;10.52;57.36
61814;BME280;57055;-35.296;149.168;2022-08-27T07:19:32;96072.43;;;10.01;57.34
61814;BME280;57055;-35.296;149.168;2022-08-27T07:22:00;96075.25;;;10.00;57.33
61814;BME280;57055;-35.296;149.168;2022-08-27T07:24:30;96080.12;;;10.47;57.51
61814;BME280;57055;-35.296;149.168;2022-08-27T07:26:59;96078.30;;;10.05;57.84
61814;BME280;57055;-35.296;149.168;2022-08-27T07:29:29;96080.37;;;10.18;58.14
61814;BME280;57055;-35.296;149.168;2022-08-27T07:31:58;96083.68;;;10.16;58.39
61814;BME280;57055;-35.296;149.168;2022-08-27T07:34:27;96082.30;;;9.82;58.80
61814;BME280;57055;-35.296;149.168;2022-08-27T07:36:56;96086.91;;;9.74;58.84
61814;BME280;57055;-35.296;149.168;2022-08-27T07:39:25;96090.22;;;9.73;59.27
61814;BME280;57055;-35.296;149.168;2022-08-27T07:41:56;96088.38;;;9.95;59.57
61814;BME280;57055;-35.296;149.168;2022-08-27T07:44:26;96091.44;;;10.12;59.95
61814;BME280;57055;-35.296;149.168;2022-08-27T07:46:55;96089.11;;;9.86;60.15
61814;BME280;57055;-35.296;149.168;2022-08-27T07:49:26;96092.31;;;9.84;60.20
61814;BME280;57055;-35.296;149.168;2022-08-27T07:51:56;96096.00;;;9.49;60.33
61814;BME280;57055;-35.296;149.168;2022-08-27T07:54:26;96102.68;;;9.75;59.94
61814;BME280;57055;-35.296;149.168;2022-08-27T07:56:55;96105.09;;;9.96;60.42
61814;BME280;57055;-35.296;149.168;2022-08-27T07:59:25;96111.02;;;9.74;60.11
61814;BME280;57055;-35.296;149.168;2022-08-27T08:01:56;96114.00;;;9.73;60.17
61814;BME280;57055;-35.296;149.168;2022-08-27T08:04:25;96121.65;;;9.62;60.18
61814;BME280;57055;-35.296;149.168;2022-08-27T08:06:55;96126.48;;;9.55;59.97
61814;BME280;57055;-35.296;149.168;2022-08-27T08:09:25;96129.54;;;9.54;59.95
61814;BME280;57055;-35.296;149.168;2022-08-27T08:11:54;96134.50;;;9.76;59.91
61814;BME280;57055;-35.296;149.168;2022-08-27T08:14:23;96142.96;;;9.53;60.08
61814;BME280;57055;-35.296;149.168;2022-08-27T08:16:52;96145.72;;;9.54;59.98
61814;BME280;57055;-35.296;149.168;2022-08-27T08:19:21;96146.31;;;9.53;60.58
61814;BME280;57055;-35.296;149.168;2022-08-27T08:21:49;96143.26;;;9.55;61.12
61814;BME280;57055;-35.296;149.168;2022-08-27T08:24:18;96145.34;;;9.49;61.16
61814;BME280;57055;-35.296;149.168;2022-08-27T08:26:48;96147.97;;;9.54;60.82
61814;BME280;57055;-35.296;149.168;2022-08-27T08:29:16;96151.54;;;9.51;61.19
61814;BME280;57055;-35.296;149.168;2022-08-27T08:31:46;96157.12;;;9.51;61.41
61814;BME280;57055;-35.296;149.168;2022-08-27T08:34:16;96162.08;;;9.73;61.30
61814;BME280;57055;-35.296;149.168;2022-08-27T08:36:45;96166.88;;;9.45;61.48
61814;BME280;57055;-35.296;149.168;2022-08-27T08:39:17;96171.09;;;9.45;61.36
61814;BME280;57055;-35.296;149.168;2022-08-27T08:41:50;96174.69;;;9.61;61.17
61814;BME280;57055;-35.296;149.168;2022-08-27T08:44:27;96178.54;;;9.40;61.11
61814;BME280;57055;-35.296;149.168;2022-08-27T08:47:00;96179.33;;;9.36;61.32
61814;BME280;57055;-35.296;149.168;2022-08-27T08:49:37;96180.97;;;9.34;61.21
61814;BME280;57055;-35.296;149.168;2022-08-27T08:52:17;96184.67;;;9.54;61.15
61814;BME280;57055;-35.296;149.168;2022-08-27T08:54:49;96185.23;;;9.50;61.09
61814;BME280;57055;-35.296;149.168;2022-08-27T08:57:23;96185.12;;;9.47;61.32
61814;BME280;57055;-35.296;149.168;2022-08-27T09:00:00;96186.21;;;9.49;61.13
61814;BME280;57055;-35.296;149.168;2022-08-27T09:02:30;96188.52;;;9.23;61.17
61814;BME280;57055;-35.296;149.168;2022-08-27T09:05:03;96189.98;;;9.22;61.13
61814;BME280;57055;-35.296;149.168;2022-08-27T09:07:36;96196.64;;;9.18;61.11
61814;BME280;57055;-35.296;149.168;2022-08-27T09:10:16;96197.32;;;9.42;61.32
61814;BME280;57055;-35.296;149.168;2022-08-27T09:12:48;96205.06;;;9.30;61.45
61814;BME280;57055;-35.296;149.168;2022-08-27T09:15:22;96205.87;;;9.17;61.66
61814;BME280;57055;-35.296;149.168;2022-08-27T09:17:52;96208.04;;;8.88;61.81
61814;BME280;57055;-35.296;149.168;2022-08-27T09:20:32;96208.26;;;9.17;61.61
61814;BME280;57055;-35.296;149.168;2022-08-27T09:23:08;96205.48;;;8.89;61.78
61814;BME280;57055;-35.296;149.168;2022-08-27T09:25:41;96204.98;;;9.25;61.75
61814;BME280;57055;-35.296;149.168;2022-08-27T09:28:14;96199.24;;;8.80;61.76
61814;BME280;57055;-35.296;149.168;2022-08-27T09:30:44;96195.65;;;9.28;61.61
61814;BME280;57055;-35.296;149.168;2022-08-27T09:33:12;96194.85;;;9.10;61.44
61814;BME280;57055;-35.296;149.168;2022-08-27T09:35:44;96200.37;;;8.93;61.34
61814;BME280;57055;-35.296;149.168;2022-08-27T09:38:25;96199.06;;;9.32;61.37
61814;BME280;57055;-35.296;149.168;2022-08-27T09:40:58;96200.33;;;9.08;61.32
61814;BME280;57055;-35.296;149.168;2022-08-27T09:43:28;96204.95;;;9.03;61.28
61814;BME280;57055;-35.296;149.168;2022-08-27T09:46:00;96209.25;;;9.14;61.48
61814;BME280;57055;-35.296;149.168;2022-08-27T09:48:32;96209.62;;;8.92;61.41
61814;BME280;57055;-35.296;149.168;2022-08-27T09:51:05;96207.32;;;8.91;61.38
61814;BME280;57055;-35.296;149.168;2022-08-27T09:53:39;96206.68;;;8.63;61.51
61814;BME280;57055;-35.296;149.168;2022-08-27T09:56:22;96212.30;;;8.85;61.46
61814;BME280;57055;-35.296;149.168;2022-08-27T09:58:54;96213.53;;;8.90;61.33
61814;BME280;57055;-35.296;149.168;2022-08-27T10:01:29;96204.56;;;9.18;61.19
61814;BME280;57055;-35.296;149.168;2022-08-27T10:04:09;96202.72;;;9.12;61.32
61814;BME280;57055;-35.296;149.168;2022-08-27T10:06:46;96202.43;;;9.08;61.39
61814;BME280;57055;-35.296;149.168;2022-08-27T10:09:19;96200.06;;;9.05;61.48
61814;BME280;57055;-35.296;149.168;2022-08-27T10:11:57;96199.61;;;8.82;61.43
61814;BME280;57055;-35.296;149.168;2022-08-27T10:14:33;96197.38;;;9.05;61.35
61814;BME280;57055;-35.296;149.168;2022-08-27T10:17:14;96192.88;;;8.77;61.49
61814;BME280;57055;-35.296;149.168;2022-08-27T10:19:55;96186.04;;;8.76;61.48
61814;BME280;57055;-35.296;149.168;2022-08-27T10:22:36;96186.95;;;9.00;61.41
61814;BME280;57055;-35.296;149.168;2022-08-27T10:25:16;96183.76;;;8.79;61.44
61814;BME280;57055;-35.296;149.168;2022-08-27T10:27:55;96183.10;;;9.01;61.46
61814;BME280;57055;-35.296;149.168;2022-08-27T10:30:37;96186.36;;;8.95;61.60
61814;BME280;57055;-35.296;149.168;2022-08-27T10:33:15;96187.55;;;8.91;62.21
61814;BME280;57055;-35.296;149.168;2022-08-27T10:35:51;96188.60;;;8.96;62.32
61814;BME280;57055;-35.296;149.168;2022-08-27T10:38:32;96193.74;;;8.77;62.28
61814;BME280;57055;-35.296;149.168;2022-08-27T10:41:14;96198.19;;;8.79;62.74
61814;BME280;57055;-35.296;149.168;2022-08-27T10:43:59;96196.64;;;8.78;62.88
61814;BME280;57055;-35.296;149.168;2022-08-27T10:46:42;96195.93;;;8.97;62.73
61814;BME280;57055;-35.296;149.168;2022-08-27T10:49:19;96198.53;;;8.92;62.99
61814;BME280;57055;-35.296;149.168;2022-08-27T10:52:06;96197.25;;;8.98;63.05
61814;BME280;57055;-35.296;149.168;2022-08-27T10:54:40;96203.32;;;8.72;63.41
61814;BME280;57055;-35.296;149.168;2022-08-27T10:57:17;96205.51;;;8.95;63.21
61814;BME280;57055;-35.296;149.168;2022-08-27T10:59:55;96208.38;;;8.89;63.21
61814;BME280;57055;-35.296;149.168;2022-08-27T11:02:33;96210.93;;;8.95;63.22
61814;BME280;57055;-35.296;149.168;2022-08-27T11:05:08;96210.60;;;8.72;63.76
61814;BME280;57055;-35.296;149.168;2022-08-27T11:07:45;96211.29;;;8.74;63.76
61814;BME280;57055;-35.296;149.168;2022-08-27T11:10:20;96210.51;;;8.85;64.06
61814;BME280;57055;-35.296;149.168;2022-08-27T11:12:54;96211.04;;;8.86;63.70
61814;BME280;57055;-35.296;149.168;2022-08-27T11:15:27;96206.37;;;8.48;63.60
61814;BME280;57055;-35.296;149.168;2022-08-27T11:18:03;96203.96;;;8.65;63.52
61814;BME280;57055;-35.296;149.168;2022-08-27T11:20:40;96197.63;;;8.87;63.60
61814;BME280;57055;-35.296;149.168;2022-08-27T11:23:15;96197.44;;;8.70;63.52
61814;BME280;57055;-35.296;149.168;2022-08-27T11:25:49;96198.75;;;8.69;63.69
61814;BME280;57055;-35.296;149.168;2022-08-27T11:28:25;96202.71;;;8.66;63.72
61814;BME280;57055;-35.296;149.168;2022-08-27T11:31:02;96202.80;;;8.87;63.67
61814;BME280;57055;-35.296;149.168;2022-08-27T11:33:37;96204.79;;;8.88;63.69
61814;BME280;57055;-35.296;149.168;2022-08-27T11:36:26;96208.25;;;8.90;63.70
61814;BME280;57055;-35.296;149.168;2022-08-27T11:39:03;96208.66;;;8.91;63.70
61814;BME280;57055;-35.296;149.168;2022-08-27T11:42:17;96208.87;;;8.88;63.81
61814;BME280;57055;-35.296;149.168;2022-08-27T11:44:50;96219.08;;;8.91;63.78
61814;BME280;57055;-35.296;149.168;2022-08-27T11:47:23;96215.98;;;8.84;64.03
61814;BME280;57055;-35.296;149.168;2022-08-27T11:49:55;96211.96;;;8.59;63.86
61814;BME280;57055;-35.296;149.168;2022-08-27T11:52:27;96210.36;;;8.66;63.97
61814;BME280;57055;-35.296;149.168;2022-08-27T11:55:12;96211.27;;;8.88;63.98
61814;BME280;57055;-35.296;149.168;2022-08-27T11:57:42;96218.60;;;8.63;64.17
61814;BME280;57055;-35.296;149.168;2022-08-27T12:00:16;96214.40;;;8.82;64.29
61814;BME280;57055;-35.296;149.168;2022-08-27T12:02:56;96214.13;;;8.58;64.24
61814;BME280;57055;-35.296;149.168;2022-08-27T12:05:36;96213.24;;;8.77;64.50
61814;BME280;57055;-35.296;149.168;2022-08-27T12:08:17;96216.00;;;8.82;64.24
61814;BME280;57055;-35.296;149.168;2022-08-27T12:11:02;96214.58;;;8.84;64.20
61814;BME280;57055;-35.296;149.168;2022-08-27T12:13:40;96213.36;;;8.88;64.09
61814;BME280;57055;-35.296;149.168;2022-08-27T12:16:22;96212.98;;;8.91;64.22
61814;BME280;57055;-35.296;149.168;2022-08-27T12:19:02;96212.17;;;8.91;64.19
61814;BME280;57055;-35.296;149.168;2022-08-27T12:21:46;96212.89;;;8.78;64.63
61814;BME280;57055;-35.296;149.168;2022-08-27T12:24:31;96211.32;;;8.59;64.51
61814;BME280;57055;-35.296;149.168;2022-08-27T12:27:23;96211.52;;;8.59;64.70
61814;BME280;57055;-35.296;149.168;2022-08-27T12:29:57;96211.05;;;8.73;64.86
61814;BME280;57055;-35.296;149.168;2022-08-27T12:32:29;96211.44;;;8.77;64.68
61814;BME280;57055;-35.296;149.168;2022-08-27T12:35:07;96216.68;;;8.85;64.56
61814;BME280;57055;-35.296;149.168;2022-08-27T12:37:41;96213.37;;;8.87;64.52
61814;BME280;57055;-35.296;149.168;2022-08-27T12:40:21;96214.41;;;8.87;64.57
61814;BME280;57055;-35.296;149.168;2022-08-27T12:43:02;96212.70;;;8.81;64.83
61814;BME280;57055;-35.296;149.168;2022-08-27T12:45:32;96206.23;;;8.81;64.69
61814;BME280;57055;-35.296;149.168;2022-08-27T12:48:07;96205.05;;;8.58;64.95
61814;BME280;57055;-35.296;149.168;2022-08-27T12:50:37;96206.68;;;8.76;64.88
61814;BME280;57055;-35.296;149.168;2022-08-27T12:54:25;96207.24;;;8.77;64.84
61814;BME280;57055;-35.296;149.168;2022-08-27T12:57:03;96210.30;;;8.66;64.54
61814;BME280;57055;-35.296;149.168;2022-08-27T12:59:45;96212.61;;;8.87;64.57
61814;BME280;57055;-35.296;149.168;2022-08-27T13:02:33;96210.65;;;8.90;64.65